createdAt,value
2019-06-20T00:00:52.563Z,12.35
2019-06-20T00:03:21.042Z,13.10
2019-06-20T00:05:47.997Z,13.75
2019-06-20T00:08:14.947Z,13.10
2019-06-20T00:10:41.894Z,12.68
2019-06-20T00:13:08.855Z,12.15
2019-06-20T00:19:09.150Z,12.40
2019-06-20T00:21:36.128Z,13.25
2019-06-20T00:24:04.110Z,12.23
2019-06-20T00:26:31.063Z,12.55
2019-06-20T00:28:58.325Z,12.47
2019-06-20T00:31:26.555Z,12.43
2019-06-20T00:33:53.687Z,11.70
2019-06-20T00:36:20.645Z,12.63
2019-06-20T00:38:48.177Z,12.33
2019-06-20T00:41:15.123Z,11.88
2019-06-20T00:43:42.128Z,12.85
2019-06-20T00:46:10.083Z,11.68
2019-06-20T00:48:37.033Z,12.65
2019-06-20T00:51:04.001Z,12.03
2019-06-20T00:53:30.972Z,12.15
2019-06-20T00:55:57.939Z,12.75
2019-06-20T00:58:24.942Z,11.93
2019-06-20T01:00:51.901Z,13.03
2019-06-20T01:03:18.833Z,13.62
2019-06-20T01:05:45.805Z,13.18
2019-06-20T01:08:12.756Z,13.60
2019-06-20T01:14:13.163Z,11.57
2019-06-20T01:16:40.128Z,11.90
2019-06-20T01:19:07.096Z,12.95
2019-06-20T01:21:34.060Z,12.58
2019-06-20T01:24:01.003Z,12.68
2019-06-20T01:26:27.980Z,11.93
2019-06-20T01:28:54.960Z,12.03
2019-06-20T01:31:21.936Z,11.50
2019-06-20T01:33:48.880Z,11.68
2019-06-20T01:36:15.853Z,12.33
2019-06-20T01:38:42.807Z,11.48
2019-06-20T01:41:10.256Z,11.70
2019-06-20T01:43:50.263Z,11.68
2019-06-20T01:46:05.993Z,11.40
2019-06-20T01:48:32.943Z,11.68
2019-06-20T01:50:59.896Z,12.40
2019-06-20T01:53:26.826Z,11.33
2019-06-20T01:55:53.752Z,12.13
2019-06-20T01:58:20.721Z,11.50
2019-06-20T02:00:48.763Z,11.45
2019-06-20T02:03:16.035Z,11.43
2019-06-20T02:05:43.091Z,11.35
2019-06-20T02:08:10.060Z,10.30
2019-06-20T02:10:37.016Z,10.43
2019-06-20T02:13:04.197Z,10.32
2019-06-20T02:19:04.336Z,9.00
2019-06-20T02:21:31.295Z,8.78
2019-06-20T02:23:58.238Z,8.13
2019-06-20T02:26:27.944Z,8.63
2019-06-20T02:28:54.907Z,9.10
2019-06-20T02:31:21.989Z,8.90
2019-06-20T02:33:48.928Z,8.43
2019-06-20T02:36:16.148Z,8.50
2019-06-20T02:38:43.110Z,7.95
2019-06-20T02:41:10.848Z,8.13
2019-06-20T02:43:37.799Z,7.80
2019-06-20T02:46:04.770Z,7.58
2019-06-20T02:48:31.738Z,7.53
2019-06-20T02:51:00.358Z,7.55
2019-06-20T02:53:27.509Z,7.45
2019-06-20T02:55:55.215Z,6.87
2019-06-20T02:58:23.188Z,7.20
2019-06-20T03:00:56.282Z,6.47
2019-06-20T03:03:24.151Z,6.20
2019-06-20T03:05:52.109Z,6.42
2019-06-20T03:08:19.012Z,6.60
2019-06-20T03:10:45.979Z,6.33
2019-06-20T03:13:12.932Z,6.47
2019-06-20T03:15:39.924Z,5.87
2019-06-20T03:18:06.893Z,7.05
2019-06-20T03:20:33.861Z,6.83
2019-06-20T03:23:00.909Z,6.83
2019-06-20T03:25:27.879Z,6.12
2019-06-20T03:27:54.847Z,6.87
2019-06-20T03:30:22.081Z,6.60
2019-06-20T03:32:49.034Z,6.37
2019-06-20T03:35:15.996Z,6.47
2019-06-20T03:37:43.008Z,5.87
2019-06-20T03:40:11.343Z,5.50
2019-06-20T03:42:38.288Z,5.62
2019-06-20T03:45:06.235Z,5.08
2019-06-20T03:47:33.177Z,5.65
2019-06-20T03:50:00.152Z,5.17
2019-06-20T03:52:27.087Z,4.67
2019-06-20T03:54:57.092Z,5.10
2019-06-20T03:57:24.032Z,7.50
2019-06-20T03:59:51.941Z,15.15
2019-06-20T04:02:19.110Z,5.05
2019-06-20T04:04:46.144Z,5.12
2019-06-20T04:07:13.133Z,4.90
2019-06-20T04:09:40.311Z,4.87
2019-06-20T04:12:07.260Z,5.08
2019-06-20T04:14:35.050Z,4.58
2019-06-20T04:17:02.010Z,5.20
2019-06-20T04:19:28.953Z,5.00
2019-06-20T04:21:55.904Z,4.92
2019-06-20T04:24:22.925Z,4.67
2019-06-20T04:26:50.783Z,4.60
2019-06-20T04:29:17.725Z,5.15
2019-06-20T04:31:44.763Z,5.08
2019-06-20T04:34:11.744Z,4.90
2019-06-20T04:36:38.800Z,5.30
2019-06-20T04:39:18.656Z,4.97
2019-06-20T04:41:35.048Z,5.25
2019-06-20T04:44:02.104Z,5.12
2019-06-20T04:46:36.373Z,5.28
2019-06-20T04:49:03.676Z,4.53
2019-06-20T04:51:37.169Z,5.30
2019-06-20T04:54:04.382Z,5.05
2019-06-20T04:56:31.296Z,4.90
2019-06-20T04:58:58.280Z,4.50
2019-06-20T05:01:25.212Z,4.92
2019-06-20T05:03:52.972Z,4.83
2019-06-20T05:06:19.907Z,4.65
2019-06-20T05:08:46.875Z,4.92
2019-06-20T05:11:14.416Z,5.10
2019-06-20T05:13:41.796Z,4.85
2019-06-20T05:16:08.739Z,5.08
2019-06-20T05:18:36.364Z,4.62
2019-06-20T05:21:03.337Z,4.90
2019-06-20T05:23:30.361Z,5.03
2019-06-20T05:25:57.401Z,4.83
2019-06-20T05:28:24.381Z,5.20
2019-06-20T05:30:51.340Z,4.33
2019-06-20T05:33:18.359Z,4.90
2019-06-20T05:35:45.340Z,4.95
2019-06-20T05:38:12.270Z,5.05
2019-06-20T05:40:39.232Z,4.97
2019-06-20T05:43:08.047Z,4.70
2019-06-20T05:45:35.009Z,7.30
2019-06-20T05:48:01.967Z,5.30
2019-06-20T05:50:29.114Z,5.30
2019-06-20T05:52:56.143Z,5.50
2019-06-20T05:55:23.113Z,5.40
2019-06-20T05:57:50.050Z,4.97
2019-06-20T06:00:17.020Z,4.72
2019-06-20T06:02:44.783Z,4.75
2019-06-20T06:05:13.640Z,5.47
2019-06-20T06:09:21.935Z,5.30
2019-06-20T06:11:52.463Z,5.08
2019-06-20T06:14:19.615Z,5.33
2019-06-20T06:16:46.763Z,5.58
2019-06-20T06:19:13.741Z,5.28
2019-06-20T06:21:40.717Z,5.40
2019-06-20T06:24:07.914Z,5.90
2019-06-20T06:26:35.058Z,5.15
2019-06-20T06:29:02.207Z,5.20
2019-06-20T06:31:29.357Z,5.30
2019-06-20T06:33:56.508Z,5.45
2019-06-20T06:36:23.594Z,4.97
2019-06-20T06:38:50.809Z,5.58
2019-06-20T06:41:19.191Z,5.37
2019-06-20T06:43:46.207Z,5.58
2019-06-20T06:46:13.630Z,5.50
2019-06-20T06:48:40.945Z,5.67
2019-06-20T06:51:08.402Z,8.65
2019-06-20T06:53:35.552Z,7.05
2019-06-20T06:56:05.185Z,5.97
2019-06-20T06:58:32.313Z,5.85
2019-06-20T07:00:59.460Z,6.55
2019-06-20T07:03:26.612Z,6.65
2019-06-20T07:05:53.763Z,6.15
2019-06-20T07:08:20.911Z,5.72
2019-06-20T07:10:48.080Z,5.28
2019-06-20T07:13:15.087Z,5.80
2019-06-20T07:15:43.165Z,6.20
2019-06-20T07:18:10.432Z,5.03
2019-06-20T07:20:37.418Z,5.42
2019-06-20T07:23:04.361Z,5.45
2019-06-20T07:25:31.616Z,5.87
2019-06-20T07:27:58.728Z,5.62
2019-06-20T07:30:26.120Z,5.70
2019-06-20T07:32:54.114Z,6.90
2019-06-20T07:35:21.037Z,8.30
2019-06-20T07:37:48.142Z,10.60
2019-06-20T07:40:16.901Z,8.98
2019-06-20T07:42:43.992Z,8.28
2019-06-20T07:45:11.053Z,7.17
2019-06-20T07:47:38.117Z,5.37
2019-06-20T07:50:07.628Z,5.03
2019-06-20T07:52:34.690Z,4.92
2019-06-20T07:55:01.612Z,4.67
2019-06-20T07:57:28.638Z,5.45
2019-06-20T07:59:55.588Z,5.80
2019-06-20T08:02:22.592Z,5.05
2019-06-20T08:04:49.943Z,5.05
2019-06-20T08:07:48.669Z,4.90
2019-06-20T08:10:16.354Z,5.12
2019-06-20T08:12:43.311Z,5.25
2019-06-20T08:15:15.507Z,4.85
2019-06-20T08:17:40.336Z,5.33
2019-06-20T08:20:09.309Z,4.70
2019-06-20T08:22:36.247Z,4.53
2019-06-20T08:25:05.380Z,4.47
2019-06-20T08:27:51.462Z,4.30
2019-06-20T08:30:27.296Z,4.47
2019-06-20T08:32:54.353Z,4.80
2019-06-20T08:35:22.919Z,5.22
2019-06-20T08:37:50.201Z,4.65
2019-06-20T08:40:17.528Z,4.50
2019-06-20T08:42:44.492Z,4.80
2019-06-20T08:45:12.151Z,4.78
2019-06-20T08:47:39.116Z,4.22
2019-06-20T08:50:07.083Z,4.37
2019-06-20T08:52:34.041Z,4.47
2019-06-20T08:55:01.299Z,4.28
2019-06-20T08:57:28.250Z,4.72
2019-06-20T08:59:57.378Z,4.20
2019-06-20T09:02:25.310Z,4.78
2019-06-20T09:04:54.827Z,4.53
2019-06-20T09:07:21.102Z,4.35
2019-06-20T09:09:48.089Z,9.45
2019-06-20T09:12:15.121Z,4.90
2019-06-20T09:14:42.083Z,4.22
2019-06-20T09:17:10.232Z,4.40
2019-06-20T09:19:37.219Z,4.33
2019-06-20T09:22:05.019Z,4.22
2019-06-20T09:24:32.251Z,4.85
2019-06-20T09:26:59.380Z,4.47
2019-06-20T09:29:40.806Z,4.40
2019-06-20T09:31:55.644Z,4.30
2019-06-20T09:34:22.757Z,4.45
2019-06-20T09:36:52.015Z,5.12
2019-06-20T09:39:18.517Z,7.87
2019-06-20T09:41:45.488Z,5.60
2019-06-20T09:44:12.443Z,4.22
2019-06-20T09:46:39.417Z,4.05
2019-06-20T09:49:06.364Z,4.15
2019-06-20T09:51:33.341Z,5.37
2019-06-20T09:54:00.314Z,5.42
2019-06-20T09:56:27.320Z,5.30
2019-06-20T09:58:55.329Z,5.35
2019-06-20T10:01:22.556Z,4.03
2019-06-20T10:03:50.515Z,5.00
2019-06-20T10:06:17.777Z,4.10
2019-06-20T10:08:46.612Z,4.37
2019-06-20T10:11:13.512Z,4.90
2019-06-20T10:13:40.475Z,5.00
2019-06-20T10:16:07.456Z,4.90
2019-06-20T10:18:34.429Z,4.50
2019-06-20T10:21:01.372Z,4.80
2019-06-20T10:26:03.653Z,4.72
2019-06-20T10:28:31.343Z,4.53
2019-06-20T10:30:58.284Z,4.40
2019-06-20T10:33:25.239Z,5.05
2019-06-20T10:35:52.613Z,4.30
2019-06-20T10:38:19.957Z,4.78
2019-06-20T10:40:47.900Z,4.75
2019-06-20T10:43:15.221Z,5.00
2019-06-20T10:45:44.102Z,4.53
2019-06-20T10:50:38.862Z,4.50
2019-06-20T10:53:05.830Z,5.08
2019-06-20T10:55:32.780Z,5.12
2019-06-20T10:58:00.032Z,4.97
2019-06-20T11:00:31.366Z,4.80
2019-06-20T11:02:56.568Z,5.20
2019-06-20T11:05:24.318Z,5.22
2019-06-20T11:07:51.267Z,5.20
2019-06-20T11:10:19.235Z,4.75
2019-06-20T11:12:52.327Z,4.65
2019-06-20T11:15:17.371Z,4.72
2019-06-20T11:17:44.377Z,5.12
2019-06-20T11:20:20.639Z,5.28
2019-06-20T11:22:47.968Z,5.08
2019-06-20T11:25:18.979Z,4.85
2019-06-20T11:27:44.767Z,5.60
2019-06-20T11:30:15.503Z,5.12
2019-06-20T11:32:43.506Z,5.62
2019-06-20T11:35:11.324Z,5.17
2019-06-20T11:37:39.594Z,4.97
2019-06-20T11:40:07.835Z,4.90
2019-06-20T11:42:36.023Z,4.30
2019-06-20T11:45:05.466Z,5.28
2019-06-20T11:47:32.532Z,5.17
2019-06-20T11:50:01.079Z,5.70
2019-06-20T11:52:28.057Z,5.55
2019-06-20T11:54:55.013Z,5.17
2019-06-20T11:57:28.074Z,5.30
2019-06-20T11:59:55.015Z,5.55
2019-06-20T12:02:21.936Z,4.80
2019-06-20T12:04:49.150Z,5.62
2019-06-20T12:07:16.356Z,5.58
2019-06-20T12:09:44.219Z,5.00
2019-06-20T12:12:11.340Z,5.15
2019-06-20T12:14:39.716Z,5.87
2019-06-20T12:17:13.217Z,5.35
2019-06-20T12:19:40.875Z,5.22
2019-06-20T12:22:08.250Z,5.92
2019-06-20T12:24:35.199Z,5.75
2019-06-20T12:27:03.142Z,5.50
2019-06-20T12:29:30.123Z,5.78
2019-06-20T12:31:57.083Z,5.65
2019-06-20T12:34:24.064Z,5.50
2019-06-20T12:36:50.999Z,5.35
2019-06-20T12:39:17.947Z,6.03
2019-06-20T12:41:45.611Z,5.92
2019-06-20T12:44:12.888Z,6.60
2019-06-20T12:46:40.936Z,5.47
2019-06-20T12:49:08.092Z,6.53
2019-06-20T12:51:35.058Z,5.97
2019-06-20T12:54:02.020Z,6.08
2019-06-20T12:56:28.980Z,5.42
2019-06-20T12:58:56.884Z,6.10
2019-06-20T13:01:35.609Z,5.40
2019-06-20T13:03:55.863Z,5.78
2019-06-20T13:06:22.811Z,5.78
2019-06-20T13:08:49.769Z,6.03
2019-06-20T13:11:16.729Z,6.45
2019-06-20T13:13:44.410Z,5.92
2019-06-20T13:16:11.640Z,6.33
2019-06-20T13:18:39.658Z,16.57
2019-06-20T13:21:07.737Z,13.35
2019-06-20T13:23:34.888Z,24.27
2019-06-20T13:26:02.043Z,10.08
2019-06-20T13:28:29.039Z,7.12
2019-06-20T13:30:56.042Z,7.20
2019-06-20T13:33:23.138Z,6.10
2019-06-20T13:35:50.891Z,6.33
2019-06-20T13:38:18.159Z,6.55
2019-06-20T13:40:45.353Z,6.42
2019-06-20T13:43:12.437Z,6.00
2019-06-20T13:45:41.183Z,6.62
2019-06-20T13:48:08.626Z,7.62
2019-06-20T13:50:35.785Z,6.72
2019-06-20T13:53:02.719Z,7.50
2019-06-20T13:55:30.140Z,6.53
2019-06-20T13:57:57.092Z,6.47
2019-06-20T14:00:27.245Z,6.25
2019-06-20T14:02:54.204Z,6.50
2019-06-20T14:05:21.171Z,6.50
2019-06-20T14:07:53.261Z,6.30
2019-06-20T14:10:17.255Z,15.05
2019-06-20T14:12:44.730Z,24.95
2019-06-20T14:15:13.196Z,15.25
2019-06-20T14:17:41.518Z,21.57
2019-06-20T14:20:09.047Z,20.65
2019-06-20T14:22:36.004Z,30.32
2019-06-20T14:25:05.520Z,22.48
2019-06-20T14:27:35.004Z,18.90
2019-06-20T14:30:01.228Z,17.15
2019-06-20T14:32:28.181Z,16.10
2019-06-20T14:34:55.135Z,13.55
2019-06-20T14:37:22.084Z,10.05
2019-06-20T14:39:50.938Z,10.50
2019-06-20T14:42:17.808Z,12.30
2019-06-20T14:44:45.967Z,12.78
2019-06-20T14:47:13.441Z,14.30
2019-06-20T14:49:40.409Z,12.98
2019-06-20T14:52:07.357Z,11.05
2019-06-20T14:54:34.337Z,12.60
2019-06-20T14:57:01.268Z,10.70
2019-06-20T14:59:28.241Z,10.75
2019-06-20T15:01:55.537Z,9.65
2019-06-20T15:04:22.572Z,9.15
2019-06-20T15:06:50.453Z,7.65
2019-06-20T15:09:17.969Z,8.23
2019-06-20T15:11:46.514Z,9.15
2019-06-20T15:14:13.688Z,9.40
2019-06-20T15:16:41.763Z,8.45
2019-06-20T15:19:08.736Z,8.30
2019-06-20T15:21:35.704Z,8.83
2019-06-20T15:24:02.641Z,8.38
2019-06-20T15:26:29.607Z,8.83
2019-06-20T15:28:57.050Z,9.05
2019-06-20T15:31:24.235Z,8.50
2019-06-20T15:33:51.604Z,9.05
2019-06-20T15:36:20.458Z,8.93
2019-06-20T15:38:48.206Z,9.08
2019-06-20T15:41:16.413Z,9.50
2019-06-20T15:43:43.419Z,9.03
2019-06-20T15:46:10.516Z,9.40
2019-06-20T15:48:37.639Z,9.35
2019-06-20T15:51:04.629Z,10.23
2019-06-20T15:53:31.571Z,10.50
2019-06-20T15:55:58.540Z,10.18
2019-06-20T15:58:26.596Z,9.75
2019-06-20T16:00:53.586Z,9.70
2019-06-20T16:03:20.552Z,9.88
2019-06-20T16:05:47.499Z,9.38
2019-06-20T16:08:14.449Z,10.28
2019-06-20T16:10:41.418Z,10.28
2019-06-20T16:13:08.373Z,9.70
2019-06-20T16:15:35.386Z,9.53
2019-06-20T16:18:02.610Z,9.63
2019-06-20T16:20:29.799Z,9.40
2019-06-20T16:22:58.033Z,10.10
2019-06-20T16:25:24.979Z,10.85
2019-06-20T16:27:51.942Z,12.35
2019-06-20T16:30:19.714Z,12.10
2019-06-20T16:32:46.688Z,12.65
2019-06-20T16:35:16.139Z,13.03
2019-06-20T16:37:43.335Z,14.20
2019-06-20T16:40:12.808Z,30.95
2019-06-20T16:42:40.474Z,18.00
2019-06-20T16:45:09.946Z,13.05
2019-06-20T16:50:06.195Z,13.60
2019-06-20T16:52:33.173Z,13.72
2019-06-20T16:55:00.517Z,13.60
2019-06-20T16:57:27.472Z,13.13
2019-06-20T16:59:54.837Z,10.70
2019-06-20T17:02:23.307Z,8.20
2019-06-20T17:04:56.477Z,11.63
2019-06-20T17:07:24.430Z,8.40
2019-06-20T17:09:51.475Z,7.62
2019-06-20T17:12:18.488Z,9.35
2019-06-20T17:14:46.753Z,9.10
2019-06-20T17:17:13.709Z,8.70
2019-06-20T17:19:42.185Z,14.20
2019-06-20T17:22:09.620Z,31.62
2019-06-20T17:24:36.771Z,29.37
2019-06-20T17:27:03.923Z,20.72
2019-06-20T17:29:31.992Z,19.35
2019-06-20T17:31:59.144Z,18.70
2019-06-20T17:34:26.293Z,16.20
2019-06-20T17:36:53.750Z,16.90
2019-06-20T17:39:20.901Z,15.00
2019-06-20T17:41:55.073Z,12.07
2019-06-20T17:44:17.659Z,13.03
2019-06-20T17:46:44.815Z,16.30
2019-06-20T17:49:11.959Z,18.80
2019-06-20T17:51:40.133Z,31.62
2019-06-20T17:54:07.489Z,34.30
2019-06-20T17:56:34.638Z,32.03
2019-06-20T17:59:01.789Z,25.35
2019-06-20T18:01:28.939Z,25.40
2019-06-20T18:03:56.089Z,21.62
2019-06-20T18:06:24.083Z,20.68
2019-06-20T18:08:51.637Z,23.92
2019-06-20T18:11:18.807Z,23.65
2019-06-20T18:13:45.922Z,19.17
2019-06-20T18:16:24.692Z,18.35
2019-06-20T18:18:42.680Z,18.42
2019-06-20T18:21:10.137Z,19.60
2019-06-20T18:23:44.658Z,18.87
2019-06-20T18:26:11.807Z,20.02
2019-06-20T18:28:38.963Z,16.20
2019-06-20T18:31:06.108Z,20.25
2019-06-20T18:33:33.269Z,21.70
2019-06-20T18:36:00.439Z,21.93
2019-06-20T18:38:28.173Z,23.38
2019-06-20T18:40:55.323Z,40.88
2019-06-20T18:43:22.473Z,27.73
2019-06-20T18:45:49.629Z,34.48
2019-06-20T18:48:16.773Z,17.27
2019-06-20T18:50:43.924Z,24.63
2019-06-20T18:53:11.088Z,22.30
2019-06-20T18:55:38.226Z,33.73
2019-06-20T18:58:05.376Z,26.45
2019-06-20T19:00:34.992Z,20.17
2019-06-20T19:03:01.754Z,18.32
2019-06-20T19:05:28.989Z,19.20
2019-06-20T19:07:56.124Z,17.87
2019-06-20T19:10:26.083Z,18.07
2019-06-20T19:12:53.202Z,18.15
2019-06-20T19:15:20.869Z,19.37
2019-06-20T19:17:48.107Z,18.55
2019-06-20T19:20:15.562Z,16.07
2019-06-20T19:22:42.714Z,17.35
2019-06-20T19:25:11.532Z,18.75
2019-06-20T19:27:46.088Z,20.35
2019-06-20T19:30:09.312Z,20.48
2019-06-20T19:32:36.241Z,18.70
2019-06-20T19:35:10.169Z,20.43
2019-06-20T19:37:36.781Z,19.62
2019-06-20T19:40:07.070Z,18.73
2019-06-20T19:42:34.045Z,21.30
2019-06-20T19:45:00.993Z,20.02
2019-06-20T19:47:27.945Z,17.82
2019-06-20T19:49:55.190Z,17.20
2019-06-20T19:52:22.379Z,15.35
2019-06-20T19:54:49.490Z,17.20
2019-06-20T19:57:16.498Z,16.60
2019-06-20T19:59:46.135Z,17.87
2019-06-20T20:02:12.289Z,18.00
2019-06-20T20:04:39.243Z,18.32
2019-06-20T20:07:07.186Z,15.70
2019-06-20T20:09:34.135Z,17.00
2019-06-20T20:12:02.705Z,18.92
2019-06-20T20:14:29.807Z,19.48
2019-06-20T20:16:56.848Z,29.67
2019-06-20T20:19:24.067Z,31.00
2019-06-20T20:21:51.213Z,29.23
2019-06-20T20:24:18.123Z,22.07
2019-06-20T20:26:45.351Z,18.27
2019-06-20T20:29:12.306Z,18.30
2019-06-20T20:31:39.253Z,17.77
2019-06-20T20:34:06.231Z,18.73
2019-06-20T20:36:33.392Z,19.02
2019-06-20T20:39:00.372Z,18.23
2019-06-20T20:41:27.320Z,22.35
2019-06-20T20:43:54.644Z,22.58
2019-06-20T20:46:21.652Z,21.95
2019-06-20T20:48:48.636Z,21.25
2019-06-20T20:51:15.572Z,18.80
2019-06-20T20:53:43.681Z,16.73
2019-06-20T20:56:12.190Z,13.93
2019-06-20T20:58:39.705Z,16.25
2019-06-20T21:01:13.065Z,15.23
2019-06-20T21:03:43.371Z,15.83
2019-06-20T21:06:10.379Z,15.93
2019-06-20T21:08:37.837Z,12.23
2019-06-20T21:11:04.876Z,13.32
2019-06-20T21:13:31.853Z,12.85
2019-06-20T21:16:02.469Z,14.10
2019-06-20T21:18:29.833Z,14.47
2019-06-20T21:20:56.875Z,13.10
2019-06-20T21:23:24.160Z,13.75
2019-06-20T21:25:51.193Z,13.95
2019-06-20T21:28:18.151Z,13.38
2019-06-20T21:30:45.102Z,13.70
2019-06-20T21:33:12.130Z,14.13
2019-06-20T21:35:39.752Z,12.58
2019-06-20T21:38:07.243Z,13.83
2019-06-20T21:40:35.867Z,13.83
2019-06-20T21:43:02.837Z,15.20
2019-06-20T21:45:29.802Z,14.30
2019-06-20T21:47:56.757Z,14.50
2019-06-20T21:50:24.716Z,14.03
2019-06-20T21:52:51.743Z,15.45
2019-06-20T21:55:18.801Z,15.85
2019-06-20T21:57:46.713Z,18.60
2019-06-20T22:00:27.583Z,16.97
2019-06-20T22:02:56.351Z,17.00
2019-06-20T22:05:23.314Z,16.00
2019-06-20T22:07:50.244Z,15.43
2019-06-20T22:10:17.735Z,15.43
2019-06-20T22:12:44.804Z,16.37
2019-06-20T22:15:11.864Z,15.80
2019-06-20T22:20:28.010Z,16.82
2019-06-20T22:22:54.993Z,16.37
2019-06-20T22:25:22.045Z,16.70
2019-06-20T22:27:49.004Z,17.30
2019-06-20T22:30:19.356Z,15.93
2019-06-20T22:32:46.325Z,15.43
2019-06-20T22:35:13.725Z,15.30
2019-06-20T22:37:40.728Z,15.63
2019-06-20T22:40:08.961Z,13.93
2019-06-20T22:42:35.907Z,14.55
2019-06-20T22:45:06.980Z,15.08
2019-06-20T22:47:34.892Z,14.95
2019-06-20T22:50:04.201Z,14.68
2019-06-20T22:52:31.136Z,15.88
2019-06-20T22:54:58.091Z,13.53
2019-06-20T22:57:25.037Z,14.58
2019-06-20T22:59:51.983Z,14.38
2019-06-20T23:02:18.948Z,15.15
2019-06-20T23:04:45.913Z,15.63
2019-06-20T23:07:14.057Z,15.72
2019-06-20T23:09:40.997Z,15.85
2019-06-20T23:12:07.958Z,15.70
2019-06-20T23:14:34.916Z,16.12
2019-06-20T23:19:57.819Z,15.43
2019-06-20T23:22:24.910Z,14.15
2019-06-20T23:24:51.935Z,16.05
2019-06-20T23:27:18.989Z,14.40
2019-06-20T23:29:46.026Z,15.35
2019-06-20T23:32:13.088Z,15.85
2019-06-20T23:34:40.219Z,16.17
2019-06-20T23:37:12.559Z,15.28
2019-06-20T23:39:36.470Z,16.30
2019-06-20T23:42:03.540Z,15.38
2019-06-20T23:44:30.553Z,17.02
2019-06-20T23:46:57.603Z,15.70
2019-06-20T23:49:24.645Z,15.50
2019-06-20T23:51:56.535Z,15.50
2019-06-20T23:54:23.580Z,16.30
2019-06-20T23:56:50.635Z,16.77
2019-06-20T23:59:17.651Z,16.75
